Time;durP1;ratioP1;P1;durP2;ratioP2;P2;SDS_P1;SDS_P2;PMS_P1;PMS_P2;Temp;Humidity;BMP_temperature;BMP_pressure;BME280_temperature;BME280_humidity;BME280_pressure;Samples;Min_cycle;Max_cycle;Signal;HPM_P1;HPM_P2
2022/11/18 00:00:27;;;;;;;7.63;2.78;;;;;;;7.14;100.00;99414.63;4973607;28;20088;-82
2022/11/18 00:02:52;;;;;;;7.70;2.53;;;;;;;7.14;100.00;99414.63;4972960;28;20026;-82
2022/11/18 00:05:18;;;;;;;10.45;2.60;;;;;;;7.14;100.00;99415.47;4989249;28;20026;-83
2022/11/18 00:07:43;;;;;;;6.28;2.97;;;;;;;7.13;100.00;99413.78;4972842;28;20026;-83
2022/11/18 00:10:08;;;;;;;7.47;2.53;;;;;;;7.15;100.00;99416.28;5003036;28;20029;-82
2022/11/18 00:15:17;;;;;;;5.03;2.38;;;;;;;7.11;100.00;99418.31;5010960;28;20172;-82
2022/11/18 00:17:43;;;;;;;8.10;2.88;;;;;;;7.10;100.00;99421.06;4991707;28;20112;-81
2022/11/18 00:20:09;;;;;;;8.80;2.60;;;;;;;7.09;100.00;99422.03;4992766;28;20368;-82
2022/11/18 00:22:34;;;;;;;6.97;2.40;;;;;;;7.08;100.00;99425.59;4996941;28;20486;-82
2022/11/18 00:24:59;;;;;;;6.82;2.85;;;;;;;7.07;100.00;99431.78;4987529;28;20027;-82
2022/11/18 00:27:28;;;;;;;6.28;2.50;;;;;;;7.04;100.00;99430.25;4973476;28;20418;-83
2022/11/18 00:29:54;;;;;;;5.72;2.58;;;;;;;7.02;100.00;99437.41;4990050;28;20042;-82
2022/11/18 00:32:19;;;;;;;10.15;3.05;;;;;;;7.02;100.00;99444.41;4989796;28;20010;-83
2022/11/18 00:34:44;;;;;;;8.10;2.63;;;;;;;7.02;100.00;99447.03;4990140;28;20113;-83
2022/11/18 00:37:10;;;;;;;8.15;3.22;;;;;;;7.05;100.00;99450.22;4993752;28;20054;-82
2022/11/18 00:39:35;;;;;;;8.07;2.70;;;;;;;7.07;100.00;99450.09;4993336;28;20109;-82
2022/11/18 00:44:44;;;;;;;7.20;3.00;;;;;;;7.11;100.00;99451.50;4974671;28;20154;-83
2022/11/18 00:47:10;;;;;;;5.57;2.78;;;;;;;7.11;100.00;99452.31;4981506;28;20105;-82
2022/11/18 00:49:35;;;;;;;6.65;3.00;;;;;;;7.11;100.00;99462.78;4993807;28;20036;-82
2022/11/18 00:52:00;;;;;;;5.78;2.60;;;;;;;7.12;100.00;99459.22;4994739;28;20468;-83
2022/11/18 00:54:26;;;;;;;7.32;2.75;;;;;;;7.13;100.00;99468.72;4992622;28;20075;-83
2022/11/18 00:56:51;;;;;;;7.18;2.70;;;;;;;7.14;100.00;99466.94;4992056;28;20030;-83
2022/11/18 00:59:16;;;;;;;6.68;2.80;;;;;;;7.16;100.00;99470.25;4992503;28;20026;-82
2022/11/18 01:01:42;;;;;;;4.25;2.60;;;;;;;7.18;100.00;99468.34;4993124;28;20471;-82
2022/11/18 01:04:07;;;;;;;5.53;2.80;;;;;;;7.18;100.00;99478.81;4994007;28;20100;-83
2022/11/18 01:06:35;;;;;;;6.78;2.58;;;;;;;7.18;100.00;99484.03;4991515;28;20810;-82
2022/11/18 01:09:01;;;;;;;6.80;2.63;;;;;;;7.19;100.00;99485.69;5008988;28;20033;-83
2022/11/18 01:14:10;;;;;;;9.02;3.08;;;;;;;7.20;100.00;99492.59;4991920;28;20130;-83
2022/11/18 01:16:35;;;;;;;10.48;2.97;;;;;;;7.21;100.00;99495.09;4992242;28;20117;-83
2022/11/18 01:19:01;;;;;;;8.48;2.83;;;;;;;7.22;100.00;99495.94;4992564;28;20030;-83
2022/11/18 01:21:28;;;;;;;7.80;2.67;;;;;;;7.21;100.00;99494.28;4993287;28;20038;-82
2022/11/18 01:23:53;;;;;;;8.15;2.53;;;;;;;7.22;100.00;99501.16;4992792;28;20101;-83
2022/11/18 01:26:19;;;;;;;5.57;2.80;;;;;;;7.25;100.00;99494.84;4993904;28;20114;-83
2022/11/18 01:28:44;;;;;;;8.02;2.85;;;;;;;7.27;100.00;99500.78;4975817;28;20109;-83
2022/11/18 01:31:17;;;;;;;7.32;2.88;;;;;;;7.29;100.00;99512.78;4993369;28;20026;-83
2022/11/18 01:33:44;;;;;;;6.25;2.58;;;;;;;7.29;100.00;99512.78;4992905;28;20049;-83
2022/11/18 01:36:19;;;;;;;6.05;2.70;;;;;;;7.32;100.00;99511.69;4991657;28;20124;-84
2022/11/18 01:38:45;;;;;;;7.30;3.13;;;;;;;7.31;100.00;99515.28;4992040;28;20387;-85
2022/11/18 01:41:11;;;;;;;7.35;2.58;;;;;;;7.34;100.00;99520.25;4993293;28;20022;-85
2022/11/18 01:43:56;;;;;;;7.93;3.10;;;;;;;7.37;100.00;99526.06;4982991;28;20058;-84
2022/11/18 01:46:24;;;;;;;5.93;2.75;;;;;;;7.34;100.00;99525.50;4988584;28;20062;-84
2022/11/18 01:48:54;;;;;;;10.18;2.90;;;;;;;7.34;100.00;99534.16;4990985;28;20030;-83
2022/11/18 01:51:25;;;;;;;9.75;3.22;;;;;;;7.36;100.00;99532.25;4983333;28;20022;-84
2022/11/18 01:53:58;;;;;;;7.20;2.92;;;;;;;7.38;100.00;99532.97;4991486;28;20554;-84
2022/11/18 01:56:30;;;;;;;6.57;2.92;;;;;;;7.40;100.00;99533.66;4990361;28;20396;-83
2022/11/18 01:59:04;;;;;;;6.18;2.67;;;;;;;7.41;100.00;99535.31;4974210;28;20479;-84
2022/11/18 02:01:30;;;;;;;6.70;2.78;;;;;;;7.42;100.00;99534.38;4990435;28;20471;-83
2022/11/18 02:03:56;;;;;;;4.80;2.70;;;;;;;7.43;100.00;99541.25;4990977;28;20164;-84
2022/11/18 02:06:21;;;;;;;8.52;3.05;;;;;;;7.49;100.00;99545.16;4991802;28;20053;-83
2022/11/18 02:08:48;;;;;;;9.50;3.50;;;;;;;7.50;100.00;99542.41;4989474;28;20033;-83
2022/11/18 02:14:01;;;;;;;7.88;3.10;;;;;;;7.57;100.00;99557.59;4991034;28;20046;-83
2022/11/18 02:17:00;;;;;;;9.65;3.28;;;;;;;7.59;100.00;99553.91;4991456;28;20475;-83
2022/11/18 02:19:40;;;;;;;6.60;3.00;;;;;;;7.63;100.00;99559.75;4989173;28;20021;-83
2022/11/18 02:22:41;;;;;;;8.13;2.70;;;;;;;7.67;100.00;99555.91;4985915;28;20030;-83
2022/11/18 02:25:13;;;;;;;7.75;2.85;;;;;;;7.69;100.00;99557.44;4980953;28;20440;-83
2022/11/18 02:27:56;;;;;;;7.72;2.80;;;;;;;7.72;100.00;99561.59;4978054;28;20056;-81
2022/11/18 02:30:22;;;;;;;7.28;2.70;;;;;;;7.73;100.00;99571.13;4970640;28;20026;-83
2022/11/18 02:33:01;;;;;;;5.68;2.70;;;;;;;7.78;100.00;99568.94;4986755;28;20459;-83
2022/11/18 02:35:43;;;;;;;7.15;3.10;;;;;;;7.78;100.00;99566.31;4967875;28;20032;-83
2022/11/18 02:38:15;;;;;;;9.90;3.00;;;;;;;7.80;100.00;99575.72;4984647;28;20036;-82
2022/11/18 02:40:45;;;;;;;6.38;2.85;;;;;;;7.80;100.00;99580.13;4969507;28;20030;-83
2022/11/18 02:43:17;;;;;;;6.93;3.00;;;;;;;7.82;100.00;99580.81;4940478;28;1249884;-83
2022/11/18 02:45:49;;;;;;;10.27;3.38;;;;;;;7.82;100.00;99579.03;4989046;28;20468;-83
2022/11/18 02:48:18;;;;;;;6.93;3.00;;;;;;;7.84;100.00;99586.75;4985995;28;20026;-84
2022/11/18 02:50:45;;;;;;;7.38;3.20;;;;;;;7.86;100.00;99584.84;4981737;28;20031;-83
2022/11/18 02:53:14;;;;;;;9.18;3.47;;;;;;;7.88;100.00;99590.78;4985773;28;20029;-83
2022/11/18 02:55:43;;;;;;;5.03;2.92;;;;;;;7.90;100.00;99591.47;4990051;28;20080;-83
2022/11/18 02:58:10;;;;;;;8.05;3.30;;;;;;;7.91;100.00;99592.31;4989889;28;20050;-83
2022/11/18 03:00:36;;;;;;;8.13;2.92;;;;;;;7.91;100.00;99589.69;4972956;28;20034;-83
2022/11/18 03:03:23;;;;;;;7.40;3.30;;;;;;;7.95;100.00;99596.34;4987460;28;20026;-83
2022/11/18 03:05:53;;;;;;;6.72;3.10;;;;;;;7.93;100.00;99599.09;4975747;28;20022;-83
2022/11/18 03:08:24;;;;;;;10.20;3.40;;;;;;;7.94;100.00;99598.13;4988381;28;20077;-83
2022/11/18 03:11:17;;;;;;;7.45;3.00;;;;;;;7.98;100.00;99604.78;4990786;28;20030;-83
2022/11/18 03:13:49;;;;;;;8.35;3.30;;;;;;;7.99;100.00;99601.19;4987709;28;20025;-84
2022/11/18 03:16:23;;;;;;;8.70;3.78;;;;;;;7.99;100.00;99609.03;4965737;28;20030;-83
2022/11/18 03:19:01;;;;;;;8.48;3.22;;;;;;;7.99;100.00;99614.28;4989897;28;20030;-83
2022/11/18 03:21:43;;;;;;;7.82;3.30;;;;;;;8.02;100.00;99606.19;4990464;28;20471;-83
2022/11/18 03:24:22;;;;;;;6.27;3.10;;;;;;;8.02;100.00;99616.69;4990586;28;20022;-82
2022/11/18 03:26:53;;;;;;;8.10;3.13;;;;;;;8.01;100.00;99612.41;4989250;28;20745;-83
2022/11/18 03:29:24;;;;;;;8.82;3.50;;;;;;;8.01;100.00;99615.03;4973211;28;20036;-83
2022/11/18 03:31:59;;;;;;;7.43;3.25;;;;;;;8.02;100.00;99627.16;4990251;28;20471;-83
2022/11/18 03:34:39;;;;;;;6.63;3.17;;;;;;;8.04;100.00;99630.47;4988088;28;20026;-82
2022/11/18 03:37:08;;;;;;;7.68;3.08;;;;;;;8.01;100.00;99625.50;4990929;28;20030;-83
2022/11/18 03:39:38;;;;;;;7.38;3.10;;;;;;;8.04;100.00;99629.66;4990251;28;20030;-83
2022/11/18 03:42:10;;;;;;;8.32;3.45;;;;;;;8.02;100.00;99632.41;4989807;28;20483;-82
2022/11/18 03:44:39;;;;;;;7.88;3.30;;;;;;;8.03;100.00;99639.28;4989041;28;20066;-83
2022/11/18 03:47:11;;;;;;;10.75;3.85;;;;;;;8.05;100.00;99641.78;4988768;28;20045;-83
2022/11/18 03:49:45;;;;;;;8.23;3.13;;;;;;;8.03;100.00;99649.78;4983943;28;20372;-82
2022/11/18 03:52:17;;;;;;;8.80;3.33;;;;;;;8.03;100.00;99660.25;4989867;28;20057;-82
2022/11/18 03:54:45;;;;;;;8.60;2.80;;;;;;;8.03;100.00;99654.19;4990063;28;20081;-82
2022/11/18 03:57:41;;;;;;;7.72;2.92;;;;;;;8.04;100.00;99667.16;4986905;28;20010;-82
2022/11/18 04:00:13;;;;;;;8.50;3.00;;;;;;;8.01;100.00;99656.09;4990763;28;20038;-82
2022/11/18 04:02:38;;;;;;;6.78;2.55;;;;;;;8.00;100.00;99660.47;4989496;28;20468;-81
2022/11/18 04:05:08;;;;;;;7.72;3.28;;;;;;;7.98;100.00;99667.63;4990193;28;20053;-81
2022/11/18 04:07:39;;;;;;;6.80;2.80;;;;;;;7.96;100.00;99673.94;4988903;28;20443;-82
2022/11/18 04:10:17;;;;;;;4.97;2.70;;;;;;;7.93;100.00;99687.31;4988398;28;20398;-83
2022/11/18 04:13:13;;;;;;;7.68;2.72;;;;;;;7.91;100.00;99687.44;4990200;28;20054;-83
2022/11/18 04:15:41;;;;;;;7.65;3.22;;;;;;;7.83;100.00;99690.66;4972436;28;20042;-82
2022/11/18 04:18:07;;;;;;;7.55;3.08;;;;;;;7.82;100.00;99685.56;4990092;28;20030;-83
2022/11/18 04:20:36;;;;;;;10.52;3.13;;;;;;;7.78;100.00;99690.22;4990121;28;20043;-83
2022/11/18 04:23:05;;;;;;;8.90;3.25;;;;;;;7.78;100.00;99690.22;4990369;28;20022;-84
2022/11/18 04:25:30;;;;;;;5.30;2.90;;;;;;;7.70;100.00;99694.41;4990004;28;20026;-84
2022/11/18 04:27:56;;;;;;;6.72;2.88;;;;;;;7.69;100.00;99698.00;4990225;28;20550;-83
2022/11/18 04:30:21;;;;;;;7.03;3.20;;;;;;;7.64;100.00;99694.91;4989930;28;20613;-83
2022/11/18 04:32:47;;;;;;;8.85;3.28;;;;;;;7.61;100.00;99701.22;4972725;28;20018;-83
2022/11/18 04:35:12;;;;;;;6.78;3.40;;;;;;;7.60;100.00;99701.31;4990229;28;20386;-84
2022/11/18 04:37:38;;;;;;;8.05;3.10;;;;;;;7.54;100.00;99703.47;4989475;28;20066;-83
2022/11/18 04:40:04;;;;;;;6.57;3.15;;;;;;;7.50;100.00;99707.28;4988889;28;20049;-84
2022/11/18 04:42:29;;;;;;;5.80;3.28;;;;;;;7.47;100.00;99709.31;4989254;28;20047;-83
2022/11/18 04:44:54;;;;;;;10.75;3.65;;;;;;;7.46;100.00;99713.72;4987609;28;20134;-83
2022/11/18 04:47:20;;;;;;;8.65;3.53;;;;;;;7.43;100.00;99715.75;4990607;28;20037;-83
2022/11/18 04:49:45;;;;;;;8.18;3.78;;;;;;;7.36;100.00;99725.88;4972264;28;20034;-83
2022/11/18 04:52:10;;;;;;;8.80;3.70;;;;;;;7.37;100.00;99717.06;4989552;28;20023;-83
2022/11/18 04:54:36;;;;;;;9.38;3.75;;;;;;;7.30;100.00;99718.50;4989843;28;20475;-83
2022/11/18 04:57:05;;;;;;;7.90;4.03;;;;;;;7.28;100.00;99719.59;4989439;28;20081;-83
2022/11/18 04:59:30;;;;;;;7.53;3.75;;;;;;;7.27;100.00;99728.41;4990066;28;20023;-83
2022/11/18 05:01:56;;;;;;;9.70;4.13;;;;;;;7.25;100.00;99731.13;4987902;28;20049;-83
2022/11/18 05:04:25;;;;;;;8.90;4.10;;;;;;;7.22;100.00;99731.38;4990483;28;20034;-83
2022/11/18 05:06:51;;;;;;;10.27;4.28;;;;;;;7.20;100.00;99733.25;4989053;28;20026;-83
2022/11/18 05:09:17;;;;;;;11.02;4.55;;;;;;;7.14;100.00;99738.97;4990926;28;20041;-83
2022/11/18 05:14:28;;;;;;;10.52;4.80;;;;;;;7.09;100.00;99747.16;4989595;28;20038;-83
2022/11/18 05:16:55;;;;;;;14.60;4.93;;;;;;;7.05;100.00;99744.91;4989881;28;20033;-83
2022/11/18 05:19:21;;;;;;;8.20;4.80;;;;;;;7.05;100.00;99750.97;4990221;28;20040;-83
2022/11/18 05:21:47;;;;;;;13.07;4.78;;;;;;;7.05;100.00;99750.13;4988913;28;20034;-83
2022/11/18 05:24:12;;;;;;;10.55;4.57;;;;;;;7.01;100.00;99748.72;4993481;28;20471;-83
2022/11/18 05:26:38;;;;;;;7.82;4.10;;;;;;;6.97;100.00;99752.50;4992315;28;20105;-83
2022/11/18 05:29:03;;;;;;;12.57;5.05;;;;;;;6.98;100.00;99744.53;4992717;28;20386;-83
2022/11/18 05:31:29;;;;;;;9.23;4.63;;;;;;;6.96;100.00;99756.06;4982520;28;20516;-83
2022/11/18 05:33:54;;;;;;;8.23;4.50;;;;;;;6.92;100.00;99763.31;4972663;28;20031;-81
2022/11/18 05:36:21;;;;;;;8.98;4.53;;;;;;;6.87;100.00;99763.69;4982804;28;20042;-83
2022/11/18 05:38:46;;;;;;;9.68;4.93;;;;;;;6.88;100.00;99759.28;4993117;28;20034;-83
2022/11/18 05:44:00;;;;;;;9.38;5.05;;;;;;;6.87;100.00;99771.53;4962473;28;20058;-83
2022/11/18 05:46:26;;;;;;;10.10;4.72;;;;;;;6.82;100.00;99767.59;4992594;28;20395;-82
2022/11/18 05:48:55;;;;;;;8.73;4.55;;;;;;;6.83;100.00;99780.56;4993090;28;20441;-83
2022/11/18 05:51:21;;;;;;;11.77;5.47;;;;;;;6.83;100.00;99782.34;4993166;28;20057;-83
2022/11/18 05:53:48;;;;;;;12.23;5.32;;;;;;;6.79;100.00;99786.09;4992716;28;20443;-83
2022/11/18 05:56:22;;;;;;;11.85;5.28;;;;;;;6.76;100.00;99789.78;4992927;28;20033;-83
2022/11/18 05:58:47;;;;;;;11.95;5.57;;;;;;;6.76;100.00;99796.78;4975542;28;20391;-83
2022/11/18 06:01:23;;;;;;;10.18;5.40;;;;;;;6.75;100.00;99795.94;4989185;28;20022;-84
2022/11/18 06:03:48;;;;;;;10.00;5.43;;;;;;;6.72;100.00;99796.19;4977091;28;20034;-83
2022/11/18 06:06:17;;;;;;;11.98;5.60;;;;;;;6.70;100.00;99800.69;4991126;28;20569;-83
2022/11/18 06:08:51;;;;;;;9.00;5.68;;;;;;;6.69;100.00;99801.66;4981219;28;20038;-83
2022/11/18 06:11:18;;;;;;;8.75;5.32;;;;;;;6.66;100.00;99804.50;4991401;28;20030;-83
2022/11/18 06:13:50;;;;;;;17.40;6.10;;;;;;;6.67;100.00;99806.16;4991964;28;20379;-82
2022/11/18 06:16:20;;;;;;;10.65;5.50;;;;;;;6.62;100.00;99808.28;4990011;28;20487;-82
2022/11/18 06:18:45;;;;;;;8.95;5.38;;;;;;;6.63;100.00;99811.72;4992226;28;20497;-83
2022/11/18 06:21:11;;;;;;;8.77;5.57;;;;;;;6.60;100.00;99818.84;4993039;28;20102;-83
2022/11/18 06:23:40;;;;;;;10.98;5.95;;;;;;;6.55;100.00;99825.38;4992485;28;20125;-83
2022/11/18 06:26:06;;;;;;;12.45;5.93;;;;;;;6.51;100.00;99824.75;4991511;28;20061;-84
2022/11/18 06:28:33;;;;;;;11.38;5.75;;;;;;;6.53;100.00;99837.72;4993525;28;20057;-83
2022/11/18 06:30:58;;;;;;;10.73;5.88;;;;;;;6.51;100.00;99839.59;4992372;28;20524;-83
2022/11/18 06:33:24;;;;;;;11.70;5.38;;;;;;;6.50;100.00;99837.94;4991251;28;20053;-83
2022/11/18 06:35:49;;;;;;;9.65;5.85;;;;;;;6.47;100.00;99848.63;4990001;28;20125;-83
2022/11/18 06:38:14;;;;;;;11.43;6.10;;;;;;;6.45;100.00;99851.34;4991362;28;20096;-82
2022/11/18 06:40:43;;;;;;;9.60;6.05;;;;;;;6.46;100.00;99852.19;4992226;28;20073;-82
2022/11/18 06:48:49;;;;;;;12.38;6.80;;;;;;;6.45;100.00;99869.63;4992054;28;20049;-85
2022/11/18 06:51:14;;;;;;;10.75;6.40;;;;;;;6.45;100.00;99868.78;4990848;28;20034;-85
2022/11/18 06:53:40;;;;;;;11.30;6.70;;;;;;;6.44;100.00;99874.97;4994423;28;20117;-85
2022/11/18 06:56:11;;;;;;;10.38;7.20;;;;;;;6.44;100.00;99877.59;4993354;28;20088;-86
2022/11/18 06:58:37;;;;;;;11.05;7.07;;;;;;;6.43;100.00;99881.97;4993708;28;20710;-86
2022/11/18 07:01:15;;;;;;;11.20;7.18;;;;;;;6.43;100.00;99883.75;4992428;28;20034;-84
2022/11/18 07:03:41;;;;;;;11.43;6.78;;;;;;;6.40;100.00;99886.56;4989494;28;20049;-85
2022/11/18 07:06:07;;;;;;;11.45;6.70;;;;;;;6.40;100.00;99894.41;4989863;28;20483;-83
2022/11/18 07:08:37;;;;;;;13.98;7.18;;;;;;;6.35;100.00;99897.34;4991511;28;20030;-86
2022/11/18 07:11:04;;;;;;;11.43;6.40;;;;;;;6.31;100.00;99893.28;4986889;28;20030;-86
2022/11/18 07:13:31;;;;;;;8.85;6.10;;;;;;;6.27;100.00;99895.28;4988884;28;20019;-86
2022/11/18 07:16:03;;;;;;;11.10;6.50;;;;;;;6.24;100.00;99900.72;4978372;28;20058;-86
2022/11/18 07:18:31;;;;;;;9.80;5.95;;;;;;;6.26;100.00;99903.22;4971583;28;20023;-86
2022/11/18 07:20:56;;;;;;;10.55;6.35;;;;;;;6.24;100.00;99907.72;4988004;28;20491;-82
2022/11/18 07:23:21;;;;;;;12.25;6.93;;;;;;;6.24;100.00;99915.56;4989705;28;20436;-86
2022/11/18 07:25:47;;;;;;;9.93;6.82;;;;;;;6.20;100.00;99909.72;4989521;28;20373;-86
2022/11/18 07:28:12;;;;;;;11.63;6.45;;;;;;;6.20;100.00;99919.34;4989399;28;20499;-82
2022/11/18 07:30:37;;;;;;;11.43;6.38;;;;;;;6.19;100.00;99918.50;4988904;28;20094;-86
2022/11/18 07:33:06;;;;;;;11.32;6.97;;;;;;;6.16;100.00;99923.13;4990216;28;20053;-86
2022/11/18 07:35:31;;;;;;;11.15;6.43;;;;;;;6.14;100.00;99925.00;4991534;28;20033;-86
2022/11/18 07:37:57;;;;;;;10.90;6.72;;;;;;;6.13;100.00;99924.16;4992394;28;20026;-86
2022/11/18 07:40:23;;;;;;;10.40;6.53;;;;;;;6.16;100.00;99928.34;4991397;28;20129;-87
2022/11/18 07:42:48;;;;;;;11.63;6.57;;;;;;;6.15;100.00;99932.72;4991059;28;20046;-81
2022/11/18 07:45:14;;;;;;;8.88;6.63;;;;;;;6.18;100.00;99936.91;4987598;28;20038;-86
2022/11/18 07:47:39;;;;;;;17.13;7.13;;;;;;;6.19;100.00;99935.94;4989847;28;20022;-84
2022/11/18 07:50:05;;;;;;;10.40;6.30;;;;;;;6.20;100.00;99941.06;4990487;28;20053;-86
2022/11/18 07:52:30;;;;;;;12.90;6.45;;;;;;;6.20;100.00;99943.69;4992366;28;20022;-85
2022/11/18 07:54:57;;;;;;;11.05;6.47;;;;;;;6.25;100.00;99946.81;4989553;28;20037;-83
2022/11/18 07:57:22;;;;;;;12.10;6.57;;;;;;;6.29;100.00;99956.09;4990883;28;20426;-86
2022/11/18 07:59:47;;;;;;;11.75;6.90;;;;;;;6.34;100.00;99953.16;4991251;28;20705;-86
2022/11/18 08:02:13;;;;;;;11.45;5.88;;;;;;;6.39;100.00;99960.66;4992519;28;20041;-85
2022/11/18 08:04:38;;;;;;;9.70;6.88;;;;;;;6.43;100.00;99967.34;4991704;28;20073;-86
2022/11/18 08:07:03;;;;;;;11.23;6.35;;;;;;;6.45;100.00;99968.09;4991003;28;20050;-84
2022/11/18 08:09:29;;;;;;;10.15;6.53;;;;;;;6.47;100.00;99971.44;4990766;28;20032;-85
2022/11/18 08:11:55;;;;;;;12.40;6.75;;;;;;;6.50;100.00;99977.25;4990034;28;20022;-81
2022/11/18 08:14:23;;;;;;;14.00;6.55;;;;;;;6.52;100.00;99980.59;4972434;28;20034;-85
2022/11/18 08:16:48;;;;;;;10.88;6.28;;;;;;;6.52;100.00;99982.38;4985689;28;20099;-85
2022/11/18 08:19:13;;;;;;;12.52;6.68;;;;;;;6.51;100.00;99991.16;4991495;28;20053;-86
2022/11/18 08:21:40;;;;;;;9.75;6.30;;;;;;;6.49;100.00;99993.06;4994574;28;20030;-85
2022/11/18 08:24:05;;;;;;;10.35;6.38;;;;;;;6.49;100.00;99998.28;4989801;28;20026;-85
2022/11/18 08:26:35;;;;;;;11.98;6.97;;;;;;;6.48;100.00;99999.22;4989926;28;20031;-84
2022/11/18 08:29:00;;;;;;;13.57;7.03;;;;;;;6.51;100.00;99997.22;4975005;28;20029;-85
2022/11/18 08:31:27;;;;;;;10.77;6.53;;;;;;;6.53;100.00;100000.56;4987831;28;20034;-85
2022/11/18 08:33:58;;;;;;;11.35;7.00;;;;;;;6.60;100.00;100006.19;4990707;28;20353;-82
2022/11/18 08:36:27;;;;;;;10.27;7.35;;;;;;;6.66;100.00;100000.53;4983417;28;20058;-84
2022/11/18 08:38:55;;;;;;;9.98;7.00;;;;;;;6.74;100.00;100006.03;4980585;28;20030;-86
2022/11/18 08:41:35;;;;;;;13.32;7.57;;;;;;;6.75;100.00;100002.47;4990333;28;20018;-86
2022/11/18 08:44:01;;;;;;;15.02;7.55;;;;;;;6.83;100.00;100004.56;4989438;28;20388;-85
2022/11/18 08:46:28;;;;;;;14.43;7.35;;;;;;;6.88;100.00;100005.91;4988967;28;20026;-85
2022/11/18 08:48:54;;;;;;;15.07;7.53;;;;;;;6.98;100.00;100010.44;4989859;28;20086;-85
2022/11/18 08:51:19;;;;;;;11.93;7.22;;;;;;;7.02;100.00;100006.66;4980243;28;20094;-85
2022/11/18 08:53:44;;;;;;;11.63;7.40;;;;;;;7.07;100.00;100010.59;4985166;28;20027;-86
2022/11/18 08:56:16;;;;;;;12.55;7.22;;;;;;;7.11;100.00;100021.69;4981563;28;20522;-86
2022/11/18 08:58:43;;;;;;;11.80;6.80;;;;;;;7.14;100.00;100011.00;5000640;28;20075;-85
2022/11/18 09:01:09;;;;;;;9.80;6.90;;;;;;;7.20;100.00;100021.00;4991425;28;20562;-85
2022/11/18 09:03:34;;;;;;;9.55;7.07;;;;;;;7.26;100.00;100014.50;4993933;28;20023;-85
2022/11/18 09:06:17;;;;;;;12.57;7.03;;;;;;;7.34;100.00;100018.22;4992548;28;20064;-85
2022/11/18 09:08:44;;;;;;;12.05;6.78;;;;;;;7.41;100.00;100019.44;4991952;28;20383;-84
2022/11/18 09:11:12;;;;;;;13.18;6.80;;;;;;;7.45;100.00;100023.50;4992194;28;20029;-81
2022/11/18 09:13:37;;;;;;;13.75;6.72;;;;;;;7.51;100.00;100025.66;4992147;28;20018;-82
2022/11/18 09:16:04;;;;;;;10.20;6.10;;;;;;;7.59;100.00;100034.72;4975109;28;20030;-82
2022/11/18 09:18:30;;;;;;;10.93;6.50;;;;;;;7.63;100.00;100033.56;4993709;28;20402;-83
2022/11/18 09:20:56;;;;;;;12.98;6.50;;;;;;;7.66;100.00;100033.34;4991756;28;20033;-85
2022/11/18 09:23:22;;;;;;;13.75;5.82;;;;;;;7.65;100.00;100042.13;4992916;28;20153;-85
2022/11/18 09:25:48;;;;;;;10.32;6.38;;;;;;;7.67;100.00;100040.22;4991757;28;20383;-83
2022/11/18 09:28:13;;;;;;;9.82;5.57;;;;;;;7.71;100.00;100042.50;4991171;28;20172;-85
2022/11/18 09:30:38;;;;;;;12.25;6.18;;;;;;;7.76;100.00;100043.00;4992324;28;20026;-86
2022/11/18 09:33:05;;;;;;;10.90;5.80;;;;;;;7.86;100.00;100046.56;4991779;28;20044;-86
2022/11/18 09:35:32;;;;;;;9.65;5.65;;;;;;;7.90;100.00;100052.41;4991536;28;20033;-86
2022/11/18 09:37:58;;;;;;;9.60;5.72;;;;;;;8.00;100.00;100047.31;4990871;28;20034;-85
2022/11/18 09:40:23;;;;;;;10.07;5.50;;;;;;;8.07;100.00;100065.09;4990360;28;20026;-85
2022/11/18 09:43:20;;;;;;;12.95;5.65;;;;;;;8.19;100.00;100073.78;4988896;28;20104;-84
2022/11/18 09:45:52;;;;;;;11.38;4.90;;;;;;;8.26;100.00;100066.28;4977880;28;20042;-84
2022/11/18 09:49:11;;;;;;;10.65;4.65;;;;;;;8.30;100.00;100081.66;4991772;28;20026;-85
2022/11/18 09:51:09;;;;;;;9.20;4.45;;;;;;;8.33;100.00;100076.22;4992364;28;20041;-84
2022/11/18 09:53:40;;;;;;;9.18;4.55;;;;;;;8.38;100.00;100083.72;4991596;28;20039;-85
2022/11/18 09:56:13;;;;;;;10.68;5.00;;;;;;;8.47;100.00;100083.03;4990503;28;20022;-84
2022/11/18 09:58:38;;;;;;;12.65;5.22;;;;;;;8.56;100.00;100092.78;4975117;28;20041;-85
2022/11/18 10:01:11;;;;;;;10.15;4.82;;;;;;;8.67;100.00;100102.44;4991526;28;20042;-85
2022/11/18 10:03:37;;;;;;;12.73;4.50;;;;;;;8.69;100.00;100104.00;4974230;28;20037;-85
2022/11/18 10:06:09;;;;;;;11.80;4.55;;;;;;;8.75;100.00;100108.75;4991095;28;20038;-85
2022/11/18 10:08:48;;;;;;;9.43;4.32;;;;;;;8.81;100.00;100101.38;4981842;28;20022;-84
2022/11/18 10:11:16;;;;;;;10.70;4.10;;;;;;;8.85;100.00;100097.56;4989225;28;20318;-85
2022/11/18 10:13:57;;;;;;;9.40;3.83;;;;;;;8.92;100.00;100109.25;4991529;28;20027;-86
2022/11/18 10:16:34;;;;;;;11.10;3.88;;;;;;;9.00;100.00;100106.84;4974074;28;20836;-86
2022/11/18 10:19:18;;;;;;;10.95;3.72;;;;;;;9.16;100.00;100109.06;4987891;28;20399;-84
2022/11/18 10:21:58;;;;;;;15.98;4.47;;;;;;;9.26;100.00;100105.59;4972712;28;20471;-85
2022/11/18 10:24:28;;;;;;;8.57;3.65;;;;;;;9.34;100.00;100099.72;4984893;28;20483;-85
2022/11/18 10:26:56;;;;;;;8.45;3.10;;;;;;;9.35;99.85;100111.91;4990702;28;20037;-88
2022/11/18 10:29:22;;;;;;;10.18;3.10;;;;;;;9.34;98.94;100111.06;4989833;28;20050;-85
2022/11/18 10:32:11;;;;;;;7.50;2.90;;;;;;;9.30;99.30;100114.91;4990429;28;20065;-84
2022/11/18 10:34:51;;;;;;;7.43;2.90;;;;;;;9.30;99.06;100119.31;4991868;28;20080;-85
2022/11/18 10:37:31;;;;;;;7.65;2.72;;;;;;;9.33;99.32;100112.03;4991494;28;20117;-86
2022/11/18 10:39:59;;;;;;;9.20;3.10;;;;;;;9.32;98.53;100123.47;4992075;28;20039;-85
2022/11/18 10:42:28;;;;;;;9.85;2.95;;;;;;;9.36;98.08;100122.28;4991852;28;20069;-88
2022/11/18 10:44:55;;;;;;;12.00;2.95;;;;;;;9.36;97.94;100117.03;4990351;28;20054;-86
2022/11/18 10:47:27;;;;;;;10.13;3.00;;;;;;;9.35;97.72;100128.47;4989510;28;20025;-85
2022/11/18 10:49:55;;;;;;;10.40;2.65;;;;;;;9.40;98.43;100128.09;4990805;28;20911;-85
2022/11/18 10:52:21;;;;;;;11.60;2.97;;;;;;;9.35;97.88;100127.66;4989693;28;20109;-85
2022/11/18 10:55:14;;;;;;;11.57;2.92;;;;;;;9.35;97.96;100123.22;4982209;28;20022;-85
2022/11/18 10:57:42;;;;;;;;;;;;;;;9.45;100.00;100130.34;4990686;28;20104;-84
2022/11/18 11:00:39;;;;;;;8.93;2.80;;;;;;;9.45;97.98;100135.63;4990961;28;19910;-82
2022/11/18 11:03:27;;;;;;;9.10;3.10;;;;;;;9.46;97.67;100135.50;4967670;28;20133;-84
2022/11/18 11:06:20;;;;;;;6.55;2.65;;;;;;;9.51;98.41;100135.94;4989240;28;20106;-82
2022/11/18 11:08:51;;;;;;;8.73;3.10;;;;;;;9.53;97.88;100138.44;4973121;28;20034;-84
2022/11/18 11:11:30;;;;;;;8.00;2.95;;;;;;;9.57;97.19;100147.75;4990102;28;20113;-84
2022/11/18 11:14:20;;;;;;;8.70;3.15;;;;;;;9.58;97.42;100146.78;4978681;28;20022;-84
2022/11/18 11:17:03;;;;;;;9.02;3.05;;;;;;;9.69;97.89;100142.34;4990538;28;20065;-84
2022/11/18 11:19:39;;;;;;;10.07;2.90;;;;;;;9.65;96.83;100151.44;4980674;28;20037;-84
2022/11/18 11:22:10;;;;;;;9.70;3.25;;;;;;;9.62;96.57;100142.97;4981296;28;20427;-84
2022/11/18 11:24:36;;;;;;;7.07;3.13;;;;;;;9.69;96.96;100150.22;4991042;28;20033;-82
2022/11/18 11:27:41;;;;;;;7.10;2.80;;;;;;;9.75;97.28;100146.25;4987736;28;20018;-85
2022/11/18 11:30:11;;;;;;;5.93;2.95;;;;;;;9.77;96.37;100149.59;4986164;28;20517;-85
2022/11/18 11:32:54;;;;;;;9.85;3.13;;;;;;;9.83;97.15;100151.72;4994835;28;20018;-85
2022/11/18 11:35:33;;;;;;;;;;;;;;;9.93;98.79;100147.38;4973879;28;20030;-84
2022/11/18 11:38:03;;;;;;;9.35;3.15;;;;;;;9.83;96.62;100156.13;4989868;28;19981;-85
2022/11/18 11:40:37;;;;;;;10.30;3.28;;;;;;;9.81;96.18;100156.25;4989105;28;20037;-82
2022/11/18 11:43:24;;;;;;;8.32;3.00;;;;;;;9.74;96.27;100158.56;5001241;28;20066;-82
2022/11/18 11:45:55;;;;;;;9.77;3.00;;;;;;;9.68;96.23;100156.44;4990433;28;20551;-86
2022/11/18 11:49:05;;;;;;;8.50;3.13;;;;;;;9.79;96.28;100152.09;4979791;28;20105;-85
2022/11/18 11:51:31;;;;;;;9.88;2.92;;;;;;;9.77;96.17;100154.84;4955405;28;20034;-85
2022/11/18 11:54:18;;;;;;;11.15;3.80;;;;;;;9.81;95.84;100160.69;4988553;28;20040;-85
2022/11/18 11:57:02;;;;;;;10.30;3.50;;;;;;;9.82;95.43;100162.34;4990263;28;20420;-85
2022/11/18 12:00:00;;;;;;;10.10;3.33;;;;;;;9.90;95.89;100170.44;4990250;28;20474;-86
2022/11/18 12:02:48;;;;;;;8.02;3.00;;;;;;;9.91;95.69;100165.06;4990237;28;20030;-86
2022/11/18 12:05:38;;;;;;;11.27;3.35;;;;;;;10.04;96.11;100167.53;4990728;28;20419;-85